sensor_id;sensor_type;location;lat;lon;timestamp;pressure;altitude;pressure_sealevel;temperature;humidity
70930;BME280;58588;48.102;19.682;2023-01-30T00:01:34;99927.13;;;-3.65;100.00
70930;BME280;58588;48.102;19.682;2023-01-30T00:04:36;99927.53;;;-3.57;100.00
70930;BME280;58588;48.102;19.682;2023-01-30T00:07:39;99923.47;;;-3.63;100.00
70930;BME280;58588;48.102;19.682;2023-01-30T00:10:41;99925.09;;;-3.76;100.00
70930;BME280;58588;48.102;19.682;2023-01-30T00:13:44;99921.59;;;-3.92;100.00
70930;BME280;58588;48.102;19.682;2023-01-30T00:16:46;99924.88;;;-4.05;100.00
70930;BME280;58588;48.102;19.682;2023-01-30T00:19:48;99922.94;;;-4.01;100.00
70930;BME280;58588;48.102;19.682;2023-01-30T00:22:52;99919.25;;;-4.14;100.00
70930;BME280;58588;48.102;19.682;2023-01-30T00:25:54;99923.06;;;-4.20;100.00
70930;BME280;58588;48.102;19.682;2023-01-30T00:28:56;99924.78;;;-4.19;100.00
70930;BME280;58588;48.102;19.682;2023-01-30T00:31:58;99929.34;;;-4.22;100.00
70930;BME280;58588;48.102;19.682;2023-01-30T00:35:00;99923.81;;;-4.34;100.00
70930;BME280;58588;48.102;19.682;2023-01-30T00:38:04;99923.66;;;-4.31;100.00
70930;BME280;58588;48.102;19.682;2023-01-30T00:41:06;99919.66;;;-4.38;100.00
70930;BME280;58588;48.102;19.682;2023-01-30T00:44:13;99914.94;;;-4.31;100.00
70930;BME280;58588;48.102;19.682;2023-01-30T00:47:32;99917.03;;;-4.22;100.00
70930;BME280;58588;48.102;19.682;2023-01-30T00:50:34;99905.06;;;-4.27;100.00
70930;BME280;58588;48.102;19.682;2023-01-30T00:53:44;99908.41;;;-4.24;100.00
70930;BME280;58588;48.102;19.682;2023-01-30T00:56:46;99903.47;;;-4.30;100.00
70930;BME280;58588;48.102;19.682;2023-01-30T00:59:48;99900.84;;;-4.30;100.00
70930;BME280;58588;48.102;19.682;2023-01-30T01:02:50;99898.53;;;-4.36;100.00
70930;BME280;58588;48.102;19.682;2023-01-30T01:05:52;99893.34;;;-4.38;100.00
70930;BME280;58588;48.102;19.682;2023-01-30T01:08:56;99894.25;;;-4.39;100.00
70930;BME280;58588;48.102;19.682;2023-01-30T01:11:58;99898.25;;;-4.47;100.00
70930;BME280;58588;48.102;19.682;2023-01-30T01:15:00;99885.31;;;-4.52;100.00
70930;BME280;58588;48.102;19.682;2023-01-30T01:18:02;99889.03;;;-4.56;100.00
70930;BME280;58588;48.102;19.682;2023-01-30T01:21:04;99890.91;;;-4.58;100.00
70930;BME280;58588;48.102;19.682;2023-01-30T01:24:11;99891.63;;;-4.72;100.00
70930;BME280;58588;48.102;19.682;2023-01-30T01:27:14;99887.53;;;-4.77;100.00
70930;BME280;58588;48.102;19.682;2023-01-30T01:30:16;99887.47;;;-4.76;100.00
70930;BME280;58588;48.102;19.682;2023-01-30T01:33:18;99878.72;;;-4.76;100.00
70930;BME280;58588;48.102;19.682;2023-01-30T01:36:20;99872.44;;;-4.74;100.00
70930;BME280;58588;48.102;19.682;2023-01-30T01:39:24;99862.94;;;-4.76;100.00
70930;BME280;58588;48.102;19.682;2023-01-30T01:42:46;99859.09;;;-4.87;100.00
70930;BME280;58588;48.102;19.682;2023-01-30T01:45:49;99846.31;;;-4.77;100.00
70930;BME280;58588;48.102;19.682;2023-01-30T01:48:54;99837.28;;;-4.89;100.00
70930;BME280;58588;48.102;19.682;2023-01-30T01:52:00;99833.22;;;-5.12;100.00
70930;BME280;58588;48.102;19.682;2023-01-30T01:55:06;99832.47;;;-5.14;100.00
70930;BME280;58588;48.102;19.682;2023-01-30T01:58:12;99820.94;;;-5.11;100.00
70930;BME280;58588;48.102;19.682;2023-01-30T02:01:14;99820.19;;;-5.13;100.00
70930;BME280;58588;48.102;19.682;2023-01-30T02:04:16;99817.63;;;-5.15;100.00
70930;BME280;58588;48.102;19.682;2023-01-30T02:07:43;99806.81;;;-5.08;100.00
70930;BME280;58588;48.102;19.682;2023-01-30T02:10:53;99800.50;;;-5.22;100.00
70930;BME280;58588;48.102;19.682;2023-01-30T02:13:57;99793.03;;;-5.14;100.00
70930;BME280;58588;48.102;19.682;2023-01-30T02:17:01;99797.75;;;-5.03;100.00
70930;BME280;58588;48.102;19.682;2023-01-30T02:20:06;99786.41;;;-5.03;100.00
70930;BME280;58588;48.102;19.682;2023-01-30T02:27:14;99784.03;;;-4.92;100.00
70930;BME280;58588;48.102;19.682;2023-01-30T02:33:56;99764.72;;;-4.91;100.00
70930;BME280;58588;48.102;19.682;2023-01-30T02:37:12;99762.47;;;-4.99;100.00
70930;BME280;58588;48.102;19.682;2023-01-30T02:40:31;99757.81;;;-4.94;100.00
70930;BME280;58588;48.102;19.682;2023-01-30T02:43:41;99758.44;;;-4.89;100.00
70930;BME280;58588;48.102;19.682;2023-01-30T02:46:51;99746.31;;;-4.91;100.00
70930;BME280;58588;48.102;19.682;2023-01-30T02:50:01;99752.31;;;-4.89;100.00
70930;BME280;58588;48.102;19.682;2023-01-30T02:53:05;99739.50;;;-4.95;100.00
70930;BME280;58588;48.102;19.682;2023-01-30T02:56:07;99744.25;;;-5.02;100.00
70930;BME280;58588;48.102;19.682;2023-01-30T02:59:10;99741.44;;;-5.15;100.00
70930;BME280;58588;48.102;19.682;2023-01-30T03:06:26;99743.69;;;-4.91;100.00
70930;BME280;58588;48.102;19.682;2023-01-30T03:09:37;99730.59;;;-4.93;100.00
70930;BME280;58588;48.102;19.682;2023-01-30T03:12:48;99736.56;;;-4.89;100.00
70930;BME280;58588;48.102;19.682;2023-01-30T03:15:57;99733.84;;;-4.88;100.00
70930;BME280;58588;48.102;19.682;2023-01-30T03:19:01;99718.81;;;-5.01;100.00
70930;BME280;58588;48.102;19.682;2023-01-30T03:22:06;99713.81;;;-5.06;100.00
70930;BME280;58588;48.102;19.682;2023-01-30T03:25:11;99706.84;;;-5.07;100.00
70930;BME280;58588;48.102;19.682;2023-01-30T03:28:17;99719.56;;;-4.99;100.00
70930;BME280;58588;48.102;19.682;2023-01-30T03:31:21;99718.97;;;-5.04;100.00
70930;BME280;58588;48.102;19.682;2023-01-30T03:34:23;99725.69;;;-4.99;100.00
70930;BME280;58588;48.102;19.682;2023-01-30T03:37:26;99724.16;;;-5.03;100.00
70930;BME280;58588;48.102;19.682;2023-01-30T03:40:28;99718.63;;;-4.98;100.00
70930;BME280;58588;48.102;19.682;2023-01-30T03:43:30;99729.50;;;-4.89;100.00
70930;BME280;58588;48.102;19.682;2023-01-30T03:46:32;99718.47;;;-4.95;100.00
70930;BME280;58588;48.102;19.682;2023-01-30T03:49:35;99719.81;;;-5.04;100.00
70930;BME280;58588;48.102;19.682;2023-01-30T03:52:38;99712.88;;;-5.05;100.00
70930;BME280;58588;48.102;19.682;2023-01-30T03:55:40;99707.22;;;-4.97;100.00
70930;BME280;58588;48.102;19.682;2023-01-30T03:58:42;99704.50;;;-4.96;100.00
70930;BME280;58588;48.102;19.682;2023-01-30T04:01:44;99698.88;;;-5.05;100.00
70930;BME280;58588;48.102;19.682;2023-01-30T04:04:46;99699.06;;;-4.93;100.00
70930;BME280;58588;48.102;19.682;2023-01-30T04:07:50;99693.63;;;-5.05;100.00
70930;BME280;58588;48.102;19.682;2023-01-30T04:10:52;99690.41;;;-4.95;100.00
70930;BME280;58588;48.102;19.682;2023-01-30T04:13:54;99690.94;;;-4.88;100.00
70930;BME280;58588;48.102;19.682;2023-01-30T04:16:56;99690.56;;;-4.98;100.00
70930;BME280;58588;48.102;19.682;2023-01-30T04:19:58;99683.78;;;-4.86;100.00
70930;BME280;58588;48.102;19.682;2023-01-30T04:23:01;99674.75;;;-4.96;100.00
70930;BME280;58588;48.102;19.682;2023-01-30T04:26:05;99682.97;;;-5.02;100.00
70930;BME280;58588;48.102;19.682;2023-01-30T04:29:07;99679.06;;;-4.95;100.00
70930;BME280;58588;48.102;19.682;2023-01-30T04:32:09;99669.28;;;-4.93;100.00
70930;BME280;58588;48.102;19.682;2023-01-30T04:35:11;99670.66;;;-4.86;100.00
70930;BME280;58588;48.102;19.682;2023-01-30T04:38:15;99666.75;;;-4.95;100.00
70930;BME280;58588;48.102;19.682;2023-01-30T04:41:17;99661.66;;;-4.98;100.00
70930;BME280;58588;48.102;19.682;2023-01-30T04:44:19;99661.75;;;-4.99;100.00
70930;BME280;58588;48.102;19.682;2023-01-30T04:47:21;99654.19;;;-5.05;100.00
70930;BME280;58588;48.102;19.682;2023-01-30T04:50:23;99650.06;;;-5.09;100.00
70930;BME280;58588;48.102;19.682;2023-01-30T04:53:26;99642.25;;;-5.11;100.00
70930;BME280;58588;48.102;19.682;2023-01-30T04:56:28;99646.88;;;-5.16;100.00
70930;BME280;58588;48.102;19.682;2023-01-30T04:59:30;99642.31;;;-5.28;100.00
70930;BME280;58588;48.102;19.682;2023-01-30T05:02:32;99640.78;;;-5.32;100.00
70930;BME280;58588;48.102;19.682;2023-01-30T05:05:34;99644.59;;;-5.22;100.00
70930;BME280;58588;48.102;19.682;2023-01-30T05:08:38;99648.66;;;-5.17;100.00
70930;BME280;58588;48.102;19.682;2023-01-30T05:11:40;99643.94;;;-5.26;100.00
70930;BME280;58588;48.102;19.682;2023-01-30T05:14:42;99646.72;;;-5.29;100.00
70930;BME280;58588;48.102;19.682;2023-01-30T05:17:45;99645.19;;;-5.33;100.00
70930;BME280;58588;48.102;19.682;2023-01-30T05:20:47;99641.88;;;-5.36;100.00
70930;BME280;58588;48.102;19.682;2023-01-30T05:23:52;99638.16;;;-5.32;100.00
70930;BME280;58588;48.102;19.682;2023-01-30T05:26:54;99645.03;;;-5.30;100.00
70930;BME280;58588;48.102;19.682;2023-01-30T05:29:56;99628.16;;;-5.26;100.00
70930;BME280;58588;48.102;19.682;2023-01-30T05:32:58;99620.34;;;-5.43;100.00
70930;BME280;58588;48.102;19.682;2023-01-30T05:36:00;99623.06;;;-5.45;100.00
70930;BME280;58588;48.102;19.682;2023-01-30T05:39:04;99624.47;;;-5.55;100.00
70930;BME280;58588;48.102;19.682;2023-01-30T05:42:06;99629.72;;;-5.55;100.00
70930;BME280;58588;48.102;19.682;2023-01-30T05:45:09;99627.50;;;-5.62;100.00
70930;BME280;58588;48.102;19.682;2023-01-30T05:48:11;99634.75;;;-5.50;100.00
70930;BME280;58588;48.102;19.682;2023-01-30T05:51:16;99632.59;;;-5.59;100.00
70930;BME280;58588;48.102;19.682;2023-01-30T05:54:19;99628.19;;;-5.59;100.00
70930;BME280;58588;48.102;19.682;2023-01-30T05:57:22;99624.19;;;-5.66;100.00
70930;BME280;58588;48.102;19.682;2023-01-30T06:00:24;99626.53;;;-5.44;100.00
70930;BME280;58588;48.102;19.682;2023-01-30T06:03:26;99632.44;;;-5.41;100.00
70930;BME280;58588;48.102;19.682;2023-01-30T06:06:28;99635.63;;;-5.67;100.00
70930;BME280;58588;48.102;19.682;2023-01-30T06:09:31;99633.91;;;-5.51;100.00
70930;BME280;58588;48.102;19.682;2023-01-30T06:12:33;99626.53;;;-5.44;100.00
70930;BME280;58588;48.102;19.682;2023-01-30T06:15:35;99629.69;;;-5.38;100.00
70930;BME280;58588;48.102;19.682;2023-01-30T06:18:38;99626.56;;;-5.13;100.00
70930;BME280;58588;48.102;19.682;2023-01-30T06:21:40;99617.50;;;-5.07;100.00
70930;BME280;58588;48.102;19.682;2023-01-30T06:24:43;99613.19;;;-5.08;100.00
70930;BME280;58588;48.102;19.682;2023-01-30T06:27:45;99618.25;;;-4.89;100.00
70930;BME280;58588;48.102;19.682;2023-01-30T06:30:48;99606.56;;;-4.68;100.00
70930;BME280;58588;48.102;19.682;2023-01-30T06:33:50;99606.69;;;-4.55;100.00
70930;BME280;58588;48.102;19.682;2023-01-30T06:36:52;99589.03;;;-4.53;100.00
70930;BME280;58588;48.102;19.682;2023-01-30T06:39:55;99589.53;;;-4.46;100.00
70930;BME280;58588;48.102;19.682;2023-01-30T06:42:57;99587.25;;;-4.52;100.00
70930;BME280;58588;48.102;19.682;2023-01-30T06:45:59;99587.84;;;-4.33;100.00
70930;BME280;58588;48.102;19.682;2023-01-30T06:49:01;99594.28;;;-4.23;100.00
70930;BME280;58588;48.102;19.682;2023-01-30T06:56:01;99582.66;;;-4.05;100.00
70930;BME280;58588;48.102;19.682;2023-01-30T06:59:03;99581.84;;;-3.91;100.00
70930;BME280;58588;48.102;19.682;2023-01-30T07:02:05;99591.25;;;-3.87;100.00
70930;BME280;58588;48.102;19.682;2023-01-30T07:05:09;99588.72;;;-3.88;100.00
70930;BME280;58588;48.102;19.682;2023-01-30T07:08:11;99575.53;;;-3.74;100.00
70930;BME280;58588;48.102;19.682;2023-01-30T07:11:15;99579.59;;;-3.68;100.00
70930;BME280;58588;48.102;19.682;2023-01-30T07:14:17;99581.69;;;-3.59;100.00
70930;BME280;58588;48.102;19.682;2023-01-30T07:17:19;99580.53;;;-3.55;100.00
70930;BME280;58588;48.102;19.682;2023-01-30T07:20:21;99586.56;;;-3.53;100.00
70930;BME280;58588;48.102;19.682;2023-01-30T07:23:23;99578.81;;;-3.42;100.00
70930;BME280;58588;48.102;19.682;2023-01-30T07:26:27;99588.69;;;-3.31;100.00
70930;BME280;58588;48.102;19.682;2023-01-30T07:29:30;99581.19;;;-3.23;100.00
70930;BME280;58588;48.102;19.682;2023-01-30T07:32:32;99583.44;;;-3.17;100.00
70930;BME280;58588;48.102;19.682;2023-01-30T07:35:35;99574.41;;;-3.00;100.00
70930;BME280;58588;48.102;19.682;2023-01-30T07:38:38;99573.09;;;-2.93;100.00
70930;BME280;58588;48.102;19.682;2023-01-30T07:41:41;99566.72;;;-2.76;100.00
70930;BME280;58588;48.102;19.682;2023-01-30T07:44:43;99574.69;;;-2.90;100.00
70930;BME280;58588;48.102;19.682;2023-01-30T07:47:45;99575.03;;;-2.82;100.00
70930;BME280;58588;48.102;19.682;2023-01-30T07:50:47;99566.94;;;-2.79;100.00
70930;BME280;58588;48.102;19.682;2023-01-30T07:53:49;99569.63;;;-2.54;100.00
70930;BME280;58588;48.102;19.682;2023-01-30T07:56:53;99562.13;;;-2.60;100.00
70930;BME280;58588;48.102;19.682;2023-01-30T07:59:55;99550.66;;;-2.46;100.00
70930;BME280;58588;48.102;19.682;2023-01-30T08:02:57;99530.03;;;-2.66;100.00
70930;BME280;58588;48.102;19.682;2023-01-30T08:05:59;99528.94;;;-2.37;100.00
70930;BME280;58588;48.102;19.682;2023-01-30T08:09:01;99526.28;;;-2.37;100.00
70930;BME280;58588;48.102;19.682;2023-01-30T08:12:04;99519.09;;;-2.35;100.00
70930;BME280;58588;48.102;19.682;2023-01-30T08:15:07;99492.59;;;-2.46;100.00
70930;BME280;58588;48.102;19.682;2023-01-30T08:18:10;99482.28;;;-2.24;100.00
70930;BME280;58588;48.102;19.682;2023-01-30T08:21:12;99482.69;;;-2.43;100.00
70930;BME280;58588;48.102;19.682;2023-01-30T08:24:14;99494.22;;;-2.18;100.00
70930;BME280;58588;48.102;19.682;2023-01-30T08:27:17;99496.31;;;-2.23;100.00
70930;BME280;58588;48.102;19.682;2023-01-30T08:30:20;99485.97;;;-2.13;100.00
70930;BME280;58588;48.102;19.682;2023-01-30T08:33:23;99491.25;;;-2.01;100.00
70930;BME280;58588;48.102;19.682;2023-01-30T08:36:25;99495.81;;;-2.03;100.00
70930;BME280;58588;48.102;19.682;2023-01-30T08:39:28;99495.47;;;-1.98;100.00
70930;BME280;58588;48.102;19.682;2023-01-30T08:42:31;99488.81;;;-2.29;100.00
70930;BME280;58588;48.102;19.682;2023-01-30T08:45:33;99484.78;;;-2.22;100.00
70930;BME280;58588;48.102;19.682;2023-01-30T08:48:35;99478.06;;;-2.13;100.00
70930;BME280;58588;48.102;19.682;2023-01-30T08:51:40;99486.09;;;-2.15;100.00
70930;BME280;58588;48.102;19.682;2023-01-30T08:54:42;99488.09;;;-2.19;100.00
70930;BME280;58588;48.102;19.682;2023-01-30T08:57:45;99478.16;;;-2.15;100.00
70930;BME280;58588;48.102;19.682;2023-01-30T09:00:47;99485.41;;;-1.93;100.00
70930;BME280;58588;48.102;19.682;2023-01-30T09:03:49;99489.13;;;-1.83;100.00
70930;BME280;58588;48.102;19.682;2023-01-30T09:06:51;99493.34;;;-1.80;100.00
70930;BME280;58588;48.102;19.682;2023-01-30T09:09:54;99491.75;;;-1.70;100.00
70930;BME280;58588;48.102;19.682;2023-01-30T09:12:57;99491.00;;;-1.59;100.00
70930;BME280;58588;48.102;19.682;2023-01-30T09:15:59;99474.19;;;-1.71;100.00
70930;BME280;58588;48.102;19.682;2023-01-30T09:19:01;99461.22;;;-1.87;100.00
70930;BME280;58588;48.102;19.682;2023-01-30T09:22:04;99463.25;;;-1.91;100.00
70930;BME280;58588;48.102;19.682;2023-01-30T09:25:07;99459.44;;;-1.99;100.00
70930;BME280;58588;48.102;19.682;2023-01-30T09:28:11;99444.66;;;-2.02;100.00
70930;BME280;58588;48.102;19.682;2023-01-30T09:31:13;99443.72;;;-2.01;100.00
70930;BME280;58588;48.102;19.682;2023-01-30T09:34:15;99434.63;;;-1.97;100.00
70930;BME280;58588;48.102;19.682;2023-01-30T09:37:17;99413.81;;;-2.01;100.00
70930;BME280;58588;48.102;19.682;2023-01-30T09:40:21;99391.50;;;-1.84;100.00
70930;BME280;58588;48.102;19.682;2023-01-30T09:43:36;99396.25;;;-1.53;100.00
70930;BME280;58588;48.102;19.682;2023-01-30T09:46:44;99392.94;;;-1.20;100.00
70930;BME280;58588;48.102;19.682;2023-01-30T09:49:55;99384.63;;;-1.15;100.00
70930;BME280;58588;48.102;19.682;2023-01-30T09:53:05;99384.59;;;-0.91;100.00
70930;BME280;58588;48.102;19.682;2023-01-30T09:56:13;99377.31;;;-0.76;100.00
70930;BME280;58588;48.102;19.682;2023-01-30T09:59:22;99361.19;;;-0.62;100.00
70930;BME280;58588;48.102;19.682;2023-01-30T10:02:34;99357.13;;;-0.33;100.00
70930;BME280;58588;48.102;19.682;2023-01-30T10:05:42;99353.16;;;-0.38;100.00
70930;BME280;58588;48.102;19.682;2023-01-30T10:08:49;99347.84;;;-0.38;100.00
70930;BME280;58588;48.102;19.682;2023-01-30T10:12:04;99346.66;;;-0.23;100.00
70930;BME280;58588;48.102;19.682;2023-01-30T10:15:31;99357.25;;;-0.34;100.00
70930;BME280;58588;48.102;19.682;2023-01-30T10:19:11;99347.63;;;-0.24;100.00
70930;BME280;58588;48.102;19.682;2023-01-30T10:22:27;99327.25;;;-0.01;100.00
70930;BME280;58588;48.102;19.682;2023-01-30T10:25:40;99312.47;;;-0.37;100.00
70930;BME280;58588;48.102;19.682;2023-01-30T10:28:53;99319.81;;;-0.30;100.00
70930;BME280;58588;48.102;19.682;2023-01-30T10:32:02;99311.28;;;-0.33;100.00
70930;BME280;58588;48.102;19.682;2023-01-30T10:35:16;99294.06;;;-0.28;100.00
70930;BME280;58588;48.102;19.682;2023-01-30T10:38:22;99296.34;;;-0.23;100.00
70930;BME280;58588;48.102;19.682;2023-01-30T10:41:31;99291.91;;;-0.34;100.00
70930;BME280;58588;48.102;19.682;2023-01-30T10:44:35;99277.03;;;-0.14;100.00
70930;BME280;58588;48.102;19.682;2023-01-30T10:47:52;99265.97;;;-0.08;100.00
70930;BME280;58588;48.102;19.682;2023-01-30T10:50:58;99262.28;;;0.16;100.00
70930;BME280;58588;48.102;19.682;2023-01-30T10:54:09;99243.47;;;-0.24;100.00
70930;BME280;58588;48.102;19.682;2023-01-30T10:57:16;99246.19;;;-0.47;100.00
70930;BME280;58588;48.102;19.682;2023-01-30T11:00:27;99246.66;;;-0.42;100.00
70930;BME280;58588;48.102;19.682;2023-01-30T11:03:38;99244.44;;;-0.25;100.00
70930;BME280;58588;48.102;19.682;2023-01-30T11:06:41;99237.28;;;-0.57;100.00
70930;BME280;58588;48.102;19.682;2023-01-30T11:09:45;99229.53;;;-0.27;100.00
70930;BME280;58588;48.102;19.682;2023-01-30T11:12:48;99221.25;;;-0.01;100.00
70930;BME280;58588;48.102;19.682;2023-01-30T11:15:55;99208.84;;;-0.01;100.00
70930;BME280;58588;48.102;19.682;2023-01-30T11:19:04;99205.69;;;0.06;100.00
70930;BME280;58588;48.102;19.682;2023-01-30T11:22:06;99204.81;;;0.16;100.00
70930;BME280;58588;48.102;19.682;2023-01-30T11:25:14;99196.19;;;0.03;100.00
70930;BME280;58588;48.102;19.682;2023-01-30T11:28:16;99192.44;;;0.06;100.00
70930;BME280;58588;48.102;19.682;2023-01-30T11:31:20;99191.75;;;0.04;100.00
70930;BME280;58588;48.102;19.682;2023-01-30T11:34:24;99189.00;;;-0.06;100.00
70930;BME280;58588;48.102;19.682;2023-01-30T11:37:31;99177.56;;;-0.07;100.00
70930;BME280;58588;48.102;19.682;2023-01-30T11:40:36;99175.75;;;-0.06;100.00
70930;BME280;58588;48.102;19.682;2023-01-30T11:43:39;99165.59;;;-0.22;100.00
70930;BME280;58588;48.102;19.682;2023-01-30T11:46:42;99153.28;;;-0.12;100.00
70930;BME280;58588;48.102;19.682;2023-01-30T11:49:47;99144.59;;;-0.14;100.00
70930;BME280;58588;48.102;19.682;2023-01-30T11:52:52;99144.53;;;-0.23;100.00
70930;BME280;58588;48.102;19.682;2023-01-30T11:55:57;99131.66;;;-0.28;100.00
70930;BME280;58588;48.102;19.682;2023-01-30T11:59:02;99126.00;;;-0.03;100.00
70930;BME280;58588;48.102;19.682;2023-01-30T12:02:12;99112.25;;;0.04;100.00
70930;BME280;58588;48.102;19.682;2023-01-30T12:05:23;99115.34;;;0.09;100.00
70930;BME280;58588;48.102;19.682;2023-01-30T12:08:32;99098.91;;;-0.06;100.00
70930;BME280;58588;48.102;19.682;2023-01-30T12:11:41;99101.06;;;0.21;100.00
70930;BME280;58588;48.102;19.682;2023-01-30T12:14:46;99094.22;;;-0.03;100.00
70930;BME280;58588;48.102;19.682;2023-01-30T12:17:56;99087.50;;;-0.07;100.00
70930;BME280;58588;48.102;19.682;2023-01-30T12:21:08;99075.47;;;0.10;100.00
70930;BME280;58588;48.102;19.682;2023-01-30T12:24:19;99083.09;;;0.04;100.00
70930;BME280;58588;48.102;19.682;2023-01-30T12:27:26;99070.91;;;0.12;100.00
70930;BME280;58588;48.102;19.682;2023-01-30T12:30:34;99060.88;;;0.16;100.00
70930;BME280;58588;48.102;19.682;2023-01-30T12:33:37;99049.78;;;0.01;100.00
70930;BME280;58588;48.102;19.682;2023-01-30T12:36:45;99046.97;;;0.03;100.00
70930;BME280;58588;48.102;19.682;2023-01-30T12:39:59;99048.00;;;0.11;100.00
70930;BME280;58588;48.102;19.682;2023-01-30T12:43:15;99051.47;;;0.12;100.00
70930;BME280;58588;48.102;19.682;2023-01-30T12:46:35;99050.56;;;0.22;100.00
70930;BME280;58588;48.102;19.682;2023-01-30T12:49:55;99052.88;;;0.06;100.00
70930;BME280;58588;48.102;19.682;2023-01-30T12:56:51;99046.16;;;0.33;100.00
70930;BME280;58588;48.102;19.682;2023-01-30T13:00:07;99032.00;;;0.43;100.00
70930;BME280;58588;48.102;19.682;2023-01-30T13:03:22;99043.28;;;0.45;100.00
70930;BME280;58588;48.102;19.682;2023-01-30T13:10:05;99052.06;;;0.67;100.00
70930;BME280;58588;48.102;19.682;2023-01-30T13:13:17;99053.97;;;0.65;100.00
70930;BME280;58588;48.102;19.682;2023-01-30T13:16:26;99044.19;;;0.56;100.00
70930;BME280;58588;48.102;19.682;2023-01-30T13:19:34;99034.91;;;0.40;100.00
70930;BME280;58588;48.102;19.682;2023-01-30T13:22:47;99042.81;;;0.31;100.00
70930;BME280;58588;48.102;19.682;2023-01-30T13:25:58;99041.75;;;0.43;100.00
70930;BME280;58588;48.102;19.682;2023-01-30T13:29:03;99040.56;;;0.57;100.00
70930;BME280;58588;48.102;19.682;2023-01-30T13:32:12;99047.38;;;0.59;100.00
70930;BME280;58588;48.102;19.682;2023-01-30T13:35:18;99035.09;;;0.48;100.00
70930;BME280;58588;48.102;19.682;2023-01-30T13:38:24;99025.09;;;0.62;100.00
70930;BME280;58588;48.102;19.682;2023-01-30T13:41:34;99016.88;;;0.74;100.00
70930;BME280;58588;48.102;19.682;2023-01-30T13:44:41;99017.28;;;0.70;100.00
70930;BME280;58588;48.102;19.682;2023-01-30T13:47:51;98999.03;;;0.86;100.00
70930;BME280;58588;48.102;19.682;2023-01-30T13:51:02;99011.75;;;0.92;100.00
70930;BME280;58588;48.102;19.682;2023-01-30T13:54:18;99006.13;;;0.76;100.00
70930;BME280;58588;48.102;19.682;2023-01-30T13:57:32;99002.69;;;0.95;100.00
70930;BME280;58588;48.102;19.682;2023-01-30T14:00:50;99008.56;;;0.98;100.00
70930;BME280;58588;48.102;19.682;2023-01-30T14:03:53;99005.50;;;1.03;100.00
70930;BME280;58588;48.102;19.682;2023-01-30T14:07:07;99001.16;;;1.02;100.00
70930;BME280;58588;48.102;19.682;2023-01-30T14:10:15;98987.91;;;1.12;100.00
70930;BME280;58588;48.102;19.682;2023-01-30T14:13:35;98988.59;;;1.14;100.00
70930;BME280;58588;48.102;19.682;2023-01-30T14:16:42;98980.94;;;1.20;100.00
70930;BME280;58588;48.102;19.682;2023-01-30T14:23:21;98987.63;;;1.15;100.00
70930;BME280;58588;48.102;19.682;2023-01-30T14:27:01;98988.03;;;1.00;100.00
70930;BME280;58588;48.102;19.682;2023-01-30T14:30:35;98990.81;;;0.99;100.00
70930;BME280;58588;48.102;19.682;2023-01-30T14:33:47;98993.34;;;1.10;100.00
70930;BME280;58588;48.102;19.682;2023-01-30T14:36:51;98994.06;;;1.22;100.00
70930;BME280;58588;48.102;19.682;2023-01-30T14:39:55;98993.34;;;1.10;100.00
70930;BME280;58588;48.102;19.682;2023-01-30T14:46:45;98979.25;;;1.10;100.00
70930;BME280;58588;48.102;19.682;2023-01-30T14:49:49;98980.91;;;0.91;100.00
70930;BME280;58588;48.102;19.682;2023-01-30T14:52:54;98986.06;;;0.93;100.00
70930;BME280;58588;48.102;19.682;2023-01-30T14:55:59;98982.28;;;0.95;100.00
70930;BME280;58588;48.102;19.682;2023-01-30T14:59:04;98979.38;;;0.98;100.00
70930;BME280;58588;48.102;19.682;2023-01-30T15:02:23;98981.59;;;0.93;100.00
70930;BME280;58588;48.102;19.682;2023-01-30T15:05:29;98975.72;;;0.80;100.00
70930;BME280;58588;48.102;19.682;2023-01-30T15:08:33;98978.38;;;0.99;100.00
70930;BME280;58588;48.102;19.682;2023-01-30T15:11:35;98974.63;;;0.92;100.00
70930;BME280;58588;48.102;19.682;2023-01-30T15:14:44;98988.53;;;0.75;100.00
70930;BME280;58588;48.102;19.682;2023-01-30T15:21:31;99006.97;;;0.76;100.00
70930;BME280;58588;48.102;19.682;2023-01-30T15:28:23;98993.47;;;0.99;100.00
70930;BME280;58588;48.102;19.682;2023-01-30T15:31:27;98976.13;;;0.95;100.00
70930;BME280;58588;48.102;19.682;2023-01-30T15:34:31;98977.53;;;0.89;100.00
70930;BME280;58588;48.102;19.682;2023-01-30T15:37:35;98980.63;;;1.04;100.00
70930;BME280;58588;48.102;19.682;2023-01-30T15:40:39;98987.97;;;0.71;100.00
70930;BME280;58588;48.102;19.682;2023-01-30T15:44:15;98984.81;;;0.97;100.00
70930;BME280;58588;48.102;19.682;2023-01-30T15:47:44;98982.25;;;0.76;100.00
70930;BME280;58588;48.102;19.682;2023-01-30T15:50:52;98989.84;;;0.90;100.00
70930;BME280;58588;48.102;19.682;2023-01-30T15:53:56;98996.66;;;0.83;100.00
70930;BME280;58588;48.102;19.682;2023-01-30T15:57:01;98995.81;;;0.83;100.00
70930;BME280;58588;48.102;19.682;2023-01-30T16:00:04;98993.31;;;0.81;100.00
70930;BME280;58588;48.102;19.682;2023-01-30T16:03:12;98994.97;;;0.72;100.00
70930;BME280;58588;48.102;19.682;2023-01-30T16:06:28;98996.94;;;0.80;100.00
70930;BME280;58588;48.102;19.682;2023-01-30T16:09:32;98986.88;;;0.74;100.00
70930;BME280;58588;48.102;19.682;2023-01-30T16:12:34;98992.13;;;0.64;100.00
70930;BME280;58588;48.102;19.682;2023-01-30T16:15:43;98992.97;;;0.65;100.00
70930;BME280;58588;48.102;19.682;2023-01-30T16:18:50;98986.44;;;0.69;100.00
70930;BME280;58588;48.102;19.682;2023-01-30T16:21:59;99004.72;;;0.62;100.00
70930;BME280;58588;48.102;19.682;2023-01-30T16:25:17;99003.75;;;0.73;100.00
70930;BME280;58588;48.102;19.682;2023-01-30T16:28:21;99011.44;;;0.66;100.00
70930;BME280;58588;48.102;19.682;2023-01-30T16:31:30;99010.16;;;0.61;100.00
70930;BME280;58588;48.102;19.682;2023-01-30T16:34:33;99011.53;;;0.65;100.00
70930;BME280;58588;48.102;19.682;2023-01-30T16:37:37;99013.25;;;0.75;100.00
70930;BME280;58588;48.102;19.682;2023-01-30T16:40:44;99017.28;;;0.70;100.00